sensor_id;sensor_type;location;lat;lon;timestamp;pressure;altitude;pressure_sealevel;temperature;humidity
79584;BME280;69053;57.338;18.700;2023-05-24T00:00:30;101614.81;;;7.19;82.43
79584;BME280;69053;57.338;18.700;2023-05-24T00:05:32;101608.19;;;7.13;82.23
79584;BME280;69053;57.338;18.700;2023-05-24T00:10:32;101608.03;;;7.06;82.04
79584;BME280;69053;57.338;18.700;2023-05-24T00:15:33;101605.69;;;6.95;82.04
79584;BME280;69053;57.338;18.700;2023-05-24T00:20:33;101608.56;;;6.85;82.67
79584;BME280;69053;57.338;18.700;2023-05-24T00:25:34;101606.38;;;6.72;82.90
79584;BME280;69053;57.338;18.700;2023-05-24T00:30:35;101615.50;;;6.63;83.18
79584;BME280;69053;57.338;18.700;2023-05-24T00:35:35;101614.47;;;6.56;83.16
79584;BME280;69053;57.338;18.700;2023-05-24T00:40:36;101613.63;;;6.47;83.45
79584;BME280;69053;57.338;18.700;2023-05-24T00:45:36;101622.75;;;6.38;83.71
79584;BME280;69053;57.338;18.700;2023-05-24T00:50:37;101617.84;;;6.33;83.58
79584;BME280;69053;57.338;18.700;2023-05-24T00:55:38;101613.22;;;6.26;83.78
79584;BME280;69053;57.338;18.700;2023-05-24T01:00:40;101617.78;;;6.17;84.10
79584;BME280;69053;57.338;18.700;2023-05-24T01:05:42;101628.44;;;6.10;83.68
79584;BME280;69053;57.338;18.700;2023-05-24T01:10:57;101626.91;;;6.08;83.23
79584;BME280;69053;57.338;18.700;2023-05-24T01:31:18;101625.63;;;5.94;83.56
79584;BME280;69053;57.338;18.700;2023-05-24T01:36:19;101627.50;;;5.93;83.67
79584;BME280;69053;57.338;18.700;2023-05-24T01:41:46;101625.94;;;5.91;83.88
79584;BME280;69053;57.338;18.700;2023-05-24T01:47:00;101638.94;;;5.87;84.11
79584;BME280;69053;57.338;18.700;2023-05-24T01:52:11;101645.34;;;5.86;84.26
79584;BME280;69053;57.338;18.700;2023-05-24T01:57:17;101648.78;;;5.88;84.30
79584;BME280;69053;57.338;18.700;2023-05-24T02:02:18;101669.69;;;5.86;84.32
79584;BME280;69053;57.338;18.700;2023-05-24T02:07:19;101650.97;;;5.85;83.71
79584;BME280;69053;57.338;18.700;2023-05-24T02:12:19;101645.53;;;5.85;83.69
79584;BME280;69053;57.338;18.700;2023-05-24T02:17:20;101640.47;;;5.81;84.04
79584;BME280;69053;57.338;18.700;2023-05-24T02:22:22;101647.53;;;5.82;84.08
79584;BME280;69053;57.338;18.700;2023-05-24T02:27:22;101653.47;;;5.86;83.54
79584;BME280;69053;57.338;18.700;2023-05-24T02:32:23;101655.69;;;5.91;83.53
79584;BME280;69053;57.338;18.700;2023-05-24T02:37:24;101655.53;;;5.92;84.40
79584;BME280;69053;57.338;18.700;2023-05-24T02:42:24;101658.91;;;5.94;84.39
79584;BME280;69053;57.338;18.700;2023-05-24T02:47:25;101653.25;;;6.06;84.01
79584;BME280;69053;57.338;18.700;2023-05-24T02:52:28;101651.22;;;6.08;84.65
79584;BME280;69053;57.338;18.700;2023-05-24T02:57:30;101653.09;;;6.15;84.89
79584;BME280;69053;57.338;18.700;2023-05-24T03:02:33;101654.84;;;6.25;84.80
79584;BME280;69053;57.338;18.700;2023-05-24T03:07:37;101642.88;;;6.35;85.67
79584;BME280;69053;57.338;18.700;2023-05-24T03:12:37;101649.00;;;6.54;86.23
79584;BME280;69053;57.338;18.700;2023-05-24T03:17:38;101644.97;;;6.74;86.17
79584;BME280;69053;57.338;18.700;2023-05-24T03:22:38;101659.38;;;6.91;85.61
79584;BME280;69053;57.338;18.700;2023-05-24T03:27:39;101655.63;;;7.09;85.35
79584;BME280;69053;57.338;18.700;2023-05-24T03:32:39;101659.84;;;7.28;85.34
79584;BME280;69053;57.338;18.700;2023-05-24T03:37:40;101665.25;;;7.44;84.96
79584;BME280;69053;57.338;18.700;2023-05-24T03:42:40;101671.78;;;7.66;85.18
79584;BME280;69053;57.338;18.700;2023-05-24T03:47:41;101671.75;;;7.91;85.04
79584;BME280;69053;57.338;18.700;2023-05-24T03:52:41;101678.22;;;8.21;85.68
79584;BME280;69053;57.338;18.700;2023-05-24T03:57:42;101679.97;;;8.45;85.03
79584;BME280;69053;57.338;18.700;2023-05-24T04:02:42;101675.56;;;8.76;85.98
79584;BME280;69053;57.338;18.700;2023-05-24T04:07:43;101679.84;;;9.16;85.87
79584;BME280;69053;57.338;18.700;2023-05-24T04:12:45;101687.63;;;9.57;86.14
79584;BME280;69053;57.338;18.700;2023-05-24T04:17:45;101691.19;;;9.88;85.96
79584;BME280;69053;57.338;18.700;2023-05-24T04:22:46;101683.13;;;10.09;84.88
79584;BME280;69053;57.338;18.700;2023-05-24T04:27:47;101689.84;;;10.43;85.03
79584;BME280;69053;57.338;18.700;2023-05-24T04:32:47;101694.44;;;10.79;84.75
79584;BME280;69053;57.338;18.700;2023-05-24T04:37:51;101699.38;;;11.12;84.06
79584;BME280;69053;57.338;18.700;2023-05-24T04:42:52;101701.69;;;11.37;83.31
79584;BME280;69053;57.338;18.700;2023-05-24T04:47:52;101708.25;;;11.71;82.90
79584;BME280;69053;57.338;18.700;2023-05-24T04:52:53;101717.56;;;12.11;82.41
79584;BME280;69053;57.338;18.700;2023-05-24T04:57:53;101726.75;;;12.45;80.83
79584;BME280;69053;57.338;18.700;2023-05-24T05:02:54;101718.06;;;12.83;80.47
79584;BME280;69053;57.338;18.700;2023-05-24T05:07:54;101727.16;;;13.17;79.10
79584;BME280;69053;57.338;18.700;2023-05-24T05:12:54;101736.69;;;13.55;77.47
79584;BME280;69053;57.338;18.700;2023-05-24T05:17:55;101738.31;;;13.96;75.10
79584;BME280;69053;57.338;18.700;2023-05-24T05:22:56;101726.66;;;14.27;73.86
79584;BME280;69053;57.338;18.700;2023-05-24T05:27:56;101724.63;;;14.54;71.98
79584;BME280;69053;57.338;18.700;2023-05-24T05:32:57;101718.00;;;14.82;67.45
79584;BME280;69053;57.338;18.700;2023-05-24T05:37:57;101719.34;;;15.05;65.82
79584;BME280;69053;57.338;18.700;2023-05-24T05:42:58;101727.13;;;15.33;63.14
79584;BME280;69053;57.338;18.700;2023-05-24T05:47:58;101730.34;;;15.55;62.47
79584;BME280;69053;57.338;18.700;2023-05-24T05:52:59;101734.94;;;15.86;60.55
79584;BME280;69053;57.338;18.700;2023-05-24T05:57:59;101737.50;;;16.06;61.32
79584;BME280;69053;57.338;18.700;2023-05-24T06:03:00;101743.91;;;16.37;60.52
79584;BME280;69053;57.338;18.700;2023-05-24T06:08:00;101744.19;;;16.66;58.25
79584;BME280;69053;57.338;18.700;2023-05-24T06:13:11;101740.50;;;16.91;57.74
79584;BME280;69053;57.338;18.700;2023-05-24T06:18:11;101741.09;;;17.23;57.72
79584;BME280;69053;57.338;18.700;2023-05-24T06:23:12;101738.00;;;17.55;55.20
79584;BME280;69053;57.338;18.700;2023-05-24T06:28:13;101744.50;;;17.84;54.31
79584;BME280;69053;57.338;18.700;2023-05-24T06:33:13;101746.56;;;18.12;54.03
79584;BME280;69053;57.338;18.700;2023-05-24T06:38:14;101749.00;;;18.49;52.28
79584;BME280;69053;57.338;18.700;2023-05-24T06:43:15;101742.34;;;18.74;48.85
79584;BME280;69053;57.338;18.700;2023-05-24T06:48:16;101765.19;;;18.98;48.70
79584;BME280;69053;57.338;18.700;2023-05-24T06:53:17;101755.44;;;19.24;46.42
79584;BME280;69053;57.338;18.700;2023-05-24T06:58:17;101749.25;;;19.51;46.00
79584;BME280;69053;57.338;18.700;2023-05-24T07:03:18;101757.63;;;19.73;44.79
79584;BME280;69053;57.338;18.700;2023-05-24T07:08:18;101764.16;;;20.01;43.81
79584;BME280;69053;57.338;18.700;2023-05-24T07:13:19;101765.00;;;20.18;43.89
79584;BME280;69053;57.338;18.700;2023-05-24T07:18:19;101769.31;;;20.53;44.53
79584;BME280;69053;57.338;18.700;2023-05-24T07:23:20;101768.47;;;20.97;45.55
79584;BME280;69053;57.338;18.700;2023-05-24T07:28:20;101769.00;;;21.21;46.11
79584;BME280;69053;57.338;18.700;2023-05-24T07:33:21;101778.25;;;21.32;46.92
79584;BME280;69053;57.338;18.700;2023-05-24T07:38:21;101782.75;;;21.11;47.36
79584;BME280;69053;57.338;18.700;2023-05-24T07:43:22;101790.25;;;20.88;48.36
79584;BME280;69053;57.338;18.700;2023-05-24T07:48:23;101801.97;;;20.95;48.78
79584;BME280;69053;57.338;18.700;2023-05-24T07:53:23;101801.41;;;21.21;48.67
79584;BME280;69053;57.338;18.700;2023-05-24T07:58:24;101797.13;;;21.35;48.56
79584;BME280;69053;57.338;18.700;2023-05-24T08:03:24;101806.06;;;21.42;48.60
79584;BME280;69053;57.338;18.700;2023-05-24T08:08:25;101808.75;;;21.32;49.07
79584;BME280;69053;57.338;18.700;2023-05-24T08:13:25;101810.97;;;21.35;49.74
79584;BME280;69053;57.338;18.700;2023-05-24T08:18:26;101822.28;;;21.56;49.78
79584;BME280;69053;57.338;18.700;2023-05-24T08:23:26;101810.72;;;21.64;50.17
79584;BME280;69053;57.338;18.700;2023-05-24T08:28:29;101804.69;;;21.72;50.69
79584;BME280;69053;57.338;18.700;2023-05-24T08:33:29;101803.25;;;22.02;49.67
79584;BME280;69053;57.338;18.700;2023-05-24T08:38:30;101804.94;;;22.03;48.77
79584;BME280;69053;57.338;18.700;2023-05-24T08:43:30;101810.13;;;21.94;49.60
79584;BME280;69053;57.338;18.700;2023-05-24T08:48:31;101812.34;;;21.92;49.60
79584;BME280;69053;57.338;18.700;2023-05-24T08:53:32;101818.16;;;21.90;50.21
79584;BME280;69053;57.338;18.700;2023-05-24T08:58:37;101815.03;;;22.24;49.09
79584;BME280;69053;57.338;18.700;2023-05-24T09:03:39;101817.34;;;22.33;47.95
79584;BME280;69053;57.338;18.700;2023-05-24T09:08:42;101815.59;;;22.69;47.75
79584;BME280;69053;57.338;18.700;2023-05-24T09:13:46;101825.50;;;23.13;46.79
79584;BME280;69053;57.338;18.700;2023-05-24T09:18:47;101834.66;;;23.08;46.73
79584;BME280;69053;57.338;18.700;2023-05-24T09:23:48;101832.63;;;22.98;46.71
79584;BME280;69053;57.338;18.700;2023-05-24T09:28:48;101839.75;;;22.69;46.02
79584;BME280;69053;57.338;18.700;2023-05-24T09:33:50;101843.97;;;22.76;45.48
79584;BME280;69053;57.338;18.700;2023-05-24T09:39:07;101832.97;;;23.02;44.28
79584;BME280;69053;57.338;18.700;2023-05-24T09:44:12;101838.34;;;23.50;42.22
79584;BME280;69053;57.338;18.700;2023-05-24T09:49:13;101833.09;;;23.89;39.46
79584;BME280;69053;57.338;18.700;2023-05-24T09:54:13;101829.22;;;24.01;38.89
79584;BME280;69053;57.338;18.700;2023-05-24T09:59:14;101841.66;;;24.44;38.01
79584;BME280;69053;57.338;18.700;2023-05-24T10:04:15;101839.28;;;24.93;36.58
79584;BME280;69053;57.338;18.700;2023-05-24T10:09:16;101853.84;;;25.39;36.65
79584;BME280;69053;57.338;18.700;2023-05-24T10:14:17;101850.84;;;25.70;35.54
79584;BME280;69053;57.338;18.700;2023-05-24T10:19:18;101843.41;;;25.90;34.58
79584;BME280;69053;57.338;18.700;2023-05-24T10:24:23;101843.50;;;25.79;35.42
79584;BME280;69053;57.338;18.700;2023-05-24T10:29:41;101849.06;;;25.79;35.75
79584;BME280;69053;57.338;18.700;2023-05-24T10:34:45;101838.28;;;25.68;36.05
79584;BME280;69053;57.338;18.700;2023-05-24T10:39:46;101834.28;;;25.79;35.28
79584;BME280;69053;57.338;18.700;2023-05-24T10:44:47;101841.28;;;25.76;34.56
79584;BME280;69053;57.338;18.700;2023-05-24T10:49:53;101841.31;;;25.71;34.27
79584;BME280;69053;57.338;18.700;2023-05-24T10:55:03;101831.78;;;25.77;34.26
79584;BME280;69053;57.338;18.700;2023-05-24T11:05:23;101829.50;;;26.43;32.53
79584;BME280;69053;57.338;18.700;2023-05-24T11:10:30;101838.19;;;26.66;32.13
79584;BME280;69053;57.338;18.700;2023-05-24T11:15:30;101835.53;;;26.99;32.02
79584;BME280;69053;57.338;18.700;2023-05-24T11:20:33;101843.28;;;27.26;32.72
79584;BME280;69053;57.338;18.700;2023-05-24T11:25:34;101845.31;;;27.20;32.67
79584;BME280;69053;57.338;18.700;2023-05-24T11:30:44;101839.59;;;27.30;31.58
79584;BME280;69053;57.338;18.700;2023-05-24T11:35:45;101843.94;;;27.18;31.37
79584;BME280;69053;57.338;18.700;2023-05-24T11:40:48;101841.81;;;27.34;31.61
79584;BME280;69053;57.338;18.700;2023-05-24T11:45:50;101835.81;;;27.40;32.00
79584;BME280;69053;57.338;18.700;2023-05-24T11:50:51;101840.72;;;27.29;33.24
79584;BME280;69053;57.338;18.700;2023-05-24T11:55:52;101843.38;;;27.40;33.31
79584;BME280;69053;57.338;18.700;2023-05-24T12:00:53;101840.47;;;27.64;32.22
79584;BME280;69053;57.338;18.700;2023-05-24T12:05:56;101832.91;;;27.64;30.79
79584;BME280;69053;57.338;18.700;2023-05-24T12:10:56;101839.09;;;27.80;31.43
79584;BME280;69053;57.338;18.700;2023-05-24T12:15:58;101829.22;;;28.02;31.45
79584;BME280;69053;57.338;18.700;2023-05-24T12:20:59;101832.88;;;28.16;31.26
79584;BME280;69053;57.338;18.700;2023-05-24T12:26:00;101834.50;;;28.03;31.80
79584;BME280;69053;57.338;18.700;2023-05-24T12:31:02;101844.53;;;27.91;31.59
79584;BME280;69053;57.338;18.700;2023-05-24T12:36:03;101850.47;;;27.70;32.00
79584;BME280;69053;57.338;18.700;2023-05-24T12:41:04;101841.25;;;27.50;31.94
79584;BME280;69053;57.338;18.700;2023-05-24T12:46:05;101838.78;;;27.82;31.39
79584;BME280;69053;57.338;18.700;2023-05-24T12:51:06;101837.06;;;27.67;32.12
79584;BME280;69053;57.338;18.700;2023-05-24T12:56:07;101828.78;;;27.43;33.62
79584;BME280;69053;57.338;18.700;2023-05-24T13:01:08;101826.19;;;27.65;32.74
79584;BME280;69053;57.338;18.700;2023-05-24T13:06:08;101826.94;;;27.52;32.65
79584;BME280;69053;57.338;18.700;2023-05-24T13:11:09;101839.41;;;27.79;31.75
79584;BME280;69053;57.338;18.700;2023-05-24T13:16:10;101826.31;;;27.74;31.54
79584;BME280;69053;57.338;18.700;2023-05-24T13:21:11;101836.50;;;27.84;31.48
79584;BME280;69053;57.338;18.700;2023-05-24T13:26:12;101837.13;;;28.14;31.57
79584;BME280;69053;57.338;18.700;2023-05-24T13:31:13;101829.03;;;28.26;31.99
79584;BME280;69053;57.338;18.700;2023-05-24T13:36:14;101836.31;;;28.13;31.71
79584;BME280;69053;57.338;18.700;2023-05-24T13:41:18;101842.84;;;27.90;31.89
79584;BME280;69053;57.338;18.700;2023-05-24T13:46:19;101827.69;;;27.77;32.22
79584;BME280;69053;57.338;18.700;2023-05-24T13:51:20;101828.09;;;28.17;31.51
79584;BME280;69053;57.338;18.700;2023-05-24T13:56:21;101823.34;;;28.31;31.90
79584;BME280;69053;57.338;18.700;2023-05-24T14:01:23;101823.28;;;28.64;31.40
79584;BME280;69053;57.338;18.700;2023-05-24T14:06:24;101816.31;;;28.48;31.90
79584;BME280;69053;57.338;18.700;2023-05-24T14:11:25;101808.94;;;28.52;32.77
79584;BME280;69053;57.338;18.700;2023-05-24T14:16:25;101816.81;;;28.22;33.05
79584;BME280;69053;57.338;18.700;2023-05-24T14:21:26;101823.00;;;27.72;34.67
79584;BME280;69053;57.338;18.700;2023-05-24T14:26:26;101817.44;;;27.34;36.04
79584;BME280;69053;57.338;18.700;2023-05-24T14:31:27;101824.69;;;27.35;35.85
79584;BME280;69053;57.338;18.700;2023-05-24T14:36:28;101820.31;;;27.48;35.86
79584;BME280;69053;57.338;18.700;2023-05-24T14:41:28;101814.06;;;27.70;35.96
79584;BME280;69053;57.338;18.700;2023-05-24T14:46:29;101813.13;;;27.75;35.67
79584;BME280;69053;57.338;18.700;2023-05-24T14:51:30;101802.31;;;27.54;35.58
79584;BME280;69053;57.338;18.700;2023-05-24T14:56:30;101804.78;;;27.56;35.64
79584;BME280;69053;57.338;18.700;2023-05-24T15:01:31;101802.91;;;27.51;36.28
79584;BME280;69053;57.338;18.700;2023-05-24T15:06:31;101798.72;;;27.67;36.45
79584;BME280;69053;57.338;18.700;2023-05-24T15:11:34;101807.22;;;27.76;36.08
79584;BME280;69053;57.338;18.700;2023-05-24T15:16:35;101806.75;;;27.55;34.85
79584;BME280;69053;57.338;18.700;2023-05-24T15:21:36;101802.34;;;26.92;34.97
79584;BME280;69053;57.338;18.700;2023-05-24T15:26:37;101806.66;;;26.84;35.20
79584;BME280;69053;57.338;18.700;2023-05-24T15:31:37;101804.41;;;26.86;34.94
79584;BME280;69053;57.338;18.700;2023-05-24T15:36:38;101798.84;;;26.62;35.39
79584;BME280;69053;57.338;18.700;2023-05-24T15:41:40;101790.75;;;26.36;36.22
79584;BME280;69053;57.338;18.700;2023-05-24T15:46:40;101795.50;;;26.60;36.39
79584;BME280;69053;57.338;18.700;2023-05-24T15:51:41;101791.53;;;26.85;36.60
79584;BME280;69053;57.338;18.700;2023-05-24T15:56:41;101783.00;;;26.76;36.51
79584;BME280;69053;57.338;18.700;2023-05-24T16:01:42;101777.81;;;26.70;37.33
79584;BME280;69053;57.338;18.700;2023-05-24T16:06:43;101777.41;;;26.52;37.55
79584;BME280;69053;57.338;18.700;2023-05-24T16:11:43;101773.91;;;26.17;37.74
79584;BME280;69053;57.338;18.700;2023-05-24T16:16:44;101774.97;;;25.92;38.43
79584;BME280;69053;57.338;18.700;2023-05-24T16:21:45;101775.94;;;25.82;38.54
79584;BME280;69053;57.338;18.700;2023-05-24T16:26:45;101774.03;;;26.07;38.49
79584;BME280;69053;57.338;18.700;2023-05-24T16:31:46;101774.22;;;26.16;37.84
79584;BME280;69053;57.338;18.700;2023-05-24T16:36:47;101780.94;;;26.15;38.00
79584;BME280;69053;57.338;18.700;2023-05-24T16:41:47;101771.94;;;25.89;38.06
79584;BME280;69053;57.338;18.700;2023-05-24T16:46:48;101771.16;;;25.83;38.18
79584;BME280;69053;57.338;18.700;2023-05-24T16:51:59;101779.09;;;26.05;37.00
79584;BME280;69053;57.338;18.700;2023-05-24T16:56:59;101775.16;;;26.06;37.04
79584;BME280;69053;57.338;18.700;2023-05-24T17:02:00;101783.06;;;25.94;36.91
79584;BME280;69053;57.338;18.700;2023-05-24T17:07:01;101772.03;;;25.78;37.15
79584;BME280;69053;57.338;18.700;2023-05-24T17:12:01;101766.75;;;25.03;37.92
79584;BME280;69053;57.338;18.700;2023-05-24T17:17:03;101767.97;;;24.06;39.84
79584;BME280;69053;57.338;18.700;2023-05-24T17:22:04;101761.34;;;23.45;40.54
79584;BME280;69053;57.338;18.700;2023-05-24T17:27:05;101769.03;;;22.92;41.69
79584;BME280;69053;57.338;18.700;2023-05-24T17:32:06;101765.19;;;22.40;42.81
79584;BME280;69053;57.338;18.700;2023-05-24T17:37:06;101772.44;;;21.98;43.94
79584;BME280;69053;57.338;18.700;2023-05-24T17:42:07;101770.28;;;21.68;44.56
79584;BME280;69053;57.338;18.700;2023-05-24T17:47:07;101760.78;;;21.31;45.51
79584;BME280;69053;57.338;18.700;2023-05-24T17:52:08;101761.28;;;20.96;46.84
79584;BME280;69053;57.338;18.700;2023-05-24T17:57:08;101761.31;;;20.74;47.42
79584;BME280;69053;57.338;18.700;2023-05-24T18:02:09;101763.72;;;20.48;48.07
79584;BME280;69053;57.338;18.700;2023-05-24T18:07:09;101759.47;;;20.18;48.76
79584;BME280;69053;57.338;18.700;2023-05-24T18:12:10;101759.34;;;19.91;49.72
79584;BME280;69053;57.338;18.700;2023-05-24T18:17:11;101759.56;;;19.56;50.64
79584;BME280;69053;57.338;18.700;2023-05-24T18:22:12;101764.47;;;19.20;51.36
79584;BME280;69053;57.338;18.700;2023-05-24T18:27:12;101761.63;;;18.86;51.60
79584;BME280;69053;57.338;18.700;2023-05-24T18:32:13;101776.56;;;18.61;52.02
79584;BME280;69053;57.338;18.700;2023-05-24T18:37:14;101777.13;;;18.34;51.92
79584;BME280;69053;57.338;18.700;2023-05-24T18:42:14;101783.00;;;18.03;52.35
79584;BME280;69053;57.338;18.700;2023-05-24T18:47:15;101788.22;;;17.69;53.21
79584;BME280;69053;57.338;18.700;2023-05-24T18:52:15;101782.69;;;17.45;54.00
79584;BME280;69053;57.338;18.700;2023-05-24T18:57:17;101783.19;;;17.12;54.57
79584;BME280;69053;57.338;18.700;2023-05-24T19:02:18;101797.38;;;16.78;54.97
79584;BME280;69053;57.338;18.700;2023-05-24T19:07:18;101793.72;;;16.47;55.92
79584;BME280;69053;57.338;18.700;2023-05-24T19:12:19;101788.97;;;16.18;56.41
79584;BME280;69053;57.338;18.700;2023-05-24T19:17:19;101791.53;;;15.94;57.55
79584;BME280;69053;57.338;18.700;2023-05-24T19:22:20;101795.91;;;15.77;57.84
79584;BME280;69053;57.338;18.700;2023-05-24T19:27:20;101786.31;;;15.54;58.09
79584;BME280;69053;57.338;18.700;2023-05-24T19:32:21;101786.69;;;15.32;58.78
79584;BME280;69053;57.338;18.700;2023-05-24T19:37:22;101786.84;;;15.06;59.41
79584;BME280;69053;57.338;18.700;2023-05-24T19:42:23;101786.97;;;14.86;60.54
79584;BME280;69053;57.338;18.700;2023-05-24T19:47:24;101793.16;;;14.68;60.58
79584;BME280;69053;57.338;18.700;2023-05-24T19:52:24;101790.06;;;14.44;61.78
79584;BME280;69053;57.338;18.700;2023-05-24T19:57:25;101794.53;;;14.25;61.70
79584;BME280;69053;57.338;18.700;2023-05-24T20:02:26;101794.38;;;14.06;61.76
79584;BME280;69053;57.338;18.700;2023-05-24T20:07:30;101797.75;;;13.88;62.57
79584;BME280;69053;57.338;18.700;2023-05-24T20:12:30;101795.22;;;13.67;62.85
79584;BME280;69053;57.338;18.700;2023-05-24T20:17:33;101791.84;;;13.52;63.88
79584;BME280;69053;57.338;18.700;2023-05-24T20:22:34;101790.31;;;13.29;64.20
79584;BME280;69053;57.338;18.700;2023-05-24T20:27:34;101785.84;;;13.08;64.54
79584;BME280;69053;57.338;18.700;2023-05-24T20:32:35;101786.22;;;12.91;65.51
79584;BME280;69053;57.338;18.700;2023-05-24T20:37:36;101781.53;;;12.79;66.59
79584;BME280;69053;57.338;18.700;2023-05-24T20:42:36;101785.28;;;12.64;66.14
79584;BME280;69053;57.338;18.700;2023-05-24T20:47:37;101787.34;;;12.55;68.56
79584;BME280;69053;57.338;18.700;2023-05-24T20:52:37;101775.53;;;12.48;67.92
79584;BME280;69053;57.338;18.700;2023-05-24T20:57:38;101781.56;;;12.37;68.19
79584;BME280;69053;57.338;18.700;2023-05-24T21:02:39;101779.63;;;12.24;68.23
79584;BME280;69053;57.338;18.700;2023-05-24T21:07:40;101775.09;;;12.10;68.40
79584;BME280;69053;57.338;18.700;2023-05-24T21:12:40;101776.06;;;11.95;68.38
79584;BME280;69053;57.338;18.700;2023-05-24T21:17:41;101777.00;;;11.81;68.50
79584;BME280;69053;57.338;18.700;2023-05-24T21:22:41;101777.06;;;11.66;69.11
79584;BME280;69053;57.338;18.700;2023-05-24T21:27:42;101784.69;;;11.49;69.56
79584;BME280;69053;57.338;18.700;2023-05-24T21:32:42;101783.09;;;11.33;70.15
79584;BME280;69053;57.338;18.700;2023-05-24T21:37:43;101785.84;;;11.18;70.41
79584;BME280;69053;57.338;18.700;2023-05-24T21:42:43;101785.59;;;11.13;72.00
79584;BME280;69053;57.338;18.700;2023-05-24T21:47:44;101787.56;;;11.19;72.91
79584;BME280;69053;57.338;18.700;2023-05-24T21:52:44;101789.69;;;11.24;73.24
79584;BME280;69053;57.338;18.700;2023-05-24T21:57:45;101787.41;;;11.27;73.50
79584;BME280;69053;57.338;18.700;2023-05-24T22:02:46;101785.47;;;11.21;72.72
79584;BME280;69053;57.338;18.700;2023-05-24T22:07:47;101787.09;;;11.16;72.79
79584;BME280;69053;57.338;18.700;2023-05-24T22:12:47;101779.22;;;11.06;72.65
79584;BME280;69053;57.338;18.700;2023-05-24T22:17:48;101785.59;;;10.92;72.83
79584;BME280;69053;57.338;18.700;2023-05-24T22:22:49;101787.09;;;10.79;73.94
79584;BME280;69053;57.338;18.700;2023-05-24T22:27:52;101772.28;;;10.67;73.36
79584;BME280;69053;57.338;18.700;2023-05-24T22:32:54;101775.50;;;10.56;73.70
79584;BME280;69053;57.338;18.700;2023-05-24T22:37:55;101776.63;;;10.46;74.04
79584;BME280;69053;57.338;18.700;2023-05-24T22:42:56;101786.13;;;10.50;77.06
79584;BME280;69053;57.338;18.700;2023-05-24T22:47:56;101778.78;;;10.66;77.31
79584;BME280;69053;57.338;18.700;2023-05-24T22:52:57;101779.88;;;10.72;76.56
79584;BME280;69053;57.338;18.700;2023-05-24T22:57:57;101777.81;;;10.74;76.46
79584;BME280;69053;57.338;18.700;2023-05-24T23:02:58;101778.91;;;10.79;76.83
79584;BME280;69053;57.338;18.700;2023-05-24T23:07:59;101775.53;;;10.77;76.67
79584;BME280;69053;57.338;18.700;2023-05-24T23:12:59;101769.06;;;10.78;76.11
79584;BME280;69053;57.338;18.700;2023-05-24T23:18:00;101772.16;;;10.75;76.10
79584;BME280;69053;57.338;18.700;2023-05-24T23:23:02;101772.38;;;10.74;76.96
79584;BME280;69053;57.338;18.700;2023-05-24T23:28:05;101760.63;;;10.73;76.80
79584;BME280;69053;57.338;18.700;2023-05-24T23:33:05;101767.38;;;10.77;77.31
79584;BME280;69053;57.338;18.700;2023-05-24T23:38:06;101769.78;;;10.87;76.93
79584;BME280;69053;57.338;18.700;2023-05-24T23:43:07;101764.63;;;10.92;77.16
79584;BME280;69053;57.338;18.700;2023-05-24T23:48:07;101765.44;;;10.93;76.59
79584;BME280;69053;57.338;18.700;2023-05-24T23:53:08;101758.19;;;11.00;77.07
79584;BME280;69053;57.338;18.700;2023-05-24T23:58:08;101760.53;;;11.03;76.39
